createdAt,value
2016-08-19T00:00:19.799Z,21.22
2016-08-19T00:01:19.113Z,21.21
2016-08-19T00:02:19.855Z,21.15
2016-08-19T00:03:19.881Z,21.14
2016-08-19T00:04:20.615Z,21.15
2016-08-19T00:05:19.942Z,21.11
2016-08-19T00:06:19.957Z,21.14
2016-08-19T00:07:19.274Z,21.17
2016-08-19T00:08:20.011Z,21.21
2016-08-19T00:09:19.328Z,21.22
2016-08-19T00:10:19.357Z,21.17
2016-08-19T00:11:19.378Z,21.15
2016-08-19T00:12:20.830Z,21.07
2016-08-19T00:13:20.869Z,21.05
2016-08-19T00:14:20.887Z,21.07
2016-08-19T00:15:20.708Z,21.03
2016-08-19T00:16:21.966Z,21.06
2016-08-19T00:17:20.353Z,21.03
2016-08-19T00:18:20.290Z,21.02
2016-08-19T00:19:20.317Z,21
2016-08-19T00:20:20.407Z,21.02
2016-08-19T00:21:20.461Z,20.97
2016-08-19T00:22:21.219Z,20.99
2016-08-19T00:23:21.238Z,21
2016-08-19T00:24:21.259Z,20.95
2016-08-19T00:25:21.197Z,20.96
2016-08-19T00:26:20.485Z,21.02
2016-08-19T00:27:19.900Z,20.97
2016-08-19T00:28:20.676Z,20.93
2016-08-19T00:29:20.698Z,20.96
2016-08-19T00:30:20.685Z,20.92
2016-08-19T00:31:21.405Z,20.95
2016-08-19T00:32:20.715Z,21.03
2016-08-19T00:33:19.966Z,20.93
2016-08-19T00:34:20.115Z,20.92
2016-08-19T00:35:20.783Z,20.96
2016-08-19T00:36:20.077Z,20.99
2016-08-19T00:37:21.504Z,20.96
2016-08-19T00:38:20.874Z,20.9
2016-08-19T00:39:20.892Z,20.95
2016-08-19T00:40:20.971Z,20.85
2016-08-19T00:41:21.666Z,20.8
2016-08-19T00:42:20.928Z,20.92
2016-08-19T00:43:20.952Z,20.82
2016-08-19T00:44:20.983Z,20.84
2016-08-19T00:45:21.030Z,20.87
2016-08-19T00:46:21.740Z,20.8
2016-08-19T00:47:21.084Z,20.85
2016-08-19T00:48:21.070Z,20.78
2016-08-19T00:49:20.379Z,20.85
2016-08-19T00:50:20.549Z,20.88
2016-08-19T00:51:21.227Z,20.81
2016-08-19T00:52:21.168Z,20.87
2016-08-19T00:53:20.491Z,20.88
2016-08-19T00:54:20.521Z,20.93
2016-08-19T00:55:21.244Z,20.9
2016-08-19T00:56:22.082Z,20.88
2016-08-19T00:57:21.346Z,20.87
2016-08-19T00:58:22.066Z,20.87
2016-08-19T00:59:20.645Z,20.75
2016-08-19T01:00:21.385Z,20.84
2016-08-19T01:01:22.123Z,20.8
2016-08-19T01:02:21.461Z,20.82
2016-08-19T01:03:20.761Z,20.78
2016-08-19T01:04:20.766Z,20.72
2016-08-19T01:05:20.796Z,20.7
2016-08-19T01:06:22.242Z,20.72
2016-08-19T01:07:22.283Z,20.7
2016-08-19T01:08:21.582Z,20.78
2016-08-19T01:09:20.897Z,20.77
2016-08-19T01:10:20.928Z,20.7
2016-08-19T01:11:21.682Z,20.69
2016-08-19T01:12:22.402Z,20.74
2016-08-19T01:13:21.005Z,20.77
2016-08-19T01:14:22.453Z,20.7
2016-08-19T01:15:21.765Z,20.7
2016-08-19T01:16:21.802Z,20.77
2016-08-19T01:17:21.108Z,20.67
2016-08-19T01:18:21.844Z,20.69
2016-08-19T01:19:21.160Z,20.8
2016-08-19T01:20:21.895Z,20.81
2016-08-19T01:21:21.921Z,20.8
2016-08-19T01:22:21.238Z,20.7
2016-08-19T01:23:21.973Z,20.8
2016-08-19T01:24:22.720Z,20.74
2016-08-19T01:25:22.026Z,20.63
2016-08-19T01:26:22.053Z,20.66
2016-08-19T01:27:22.079Z,20.67
2016-08-19T01:28:21.393Z,20.74
2016-08-19T01:29:21.416Z,20.65
2016-08-19T01:30:21.650Z,20.55
2016-08-19T01:31:21.486Z,20.65
2016-08-19T01:32:22.232Z,20.63
2016-08-19T01:33:22.234Z,20.63
2016-08-19T01:34:21.556Z,20.63
2016-08-19T01:35:22.285Z,20.59
2016-08-19T01:36:21.604Z,20.62
2016-08-19T01:37:21.630Z,20.65
2016-08-19T01:38:21.662Z,20.63
2016-08-19T01:39:23.104Z,20.59
2016-08-19T01:40:22.415Z,20.52
2016-08-19T01:41:22.451Z,20.56
2016-08-19T01:42:22.467Z,20.56
2016-08-19T01:43:21.786Z,20.52
2016-08-19T01:44:21.811Z,20.59
2016-08-19T01:45:21.837Z,20.44
2016-08-19T01:46:21.858Z,20.52
2016-08-19T01:47:22.612Z,20.55
2016-08-19T01:48:22.625Z,20.48
2016-08-19T01:49:22.669Z,20.41
2016-08-19T01:50:23.394Z,20.48
2016-08-19T01:51:22.700Z,20.5
2016-08-19T01:52:22.017Z,20.4
2016-08-19T01:53:22.752Z,20.41
2016-08-19T01:54:22.784Z,20.44
2016-08-19T01:55:22.803Z,20.41
2016-08-19T01:56:22.123Z,20.43
2016-08-19T01:57:22.149Z,20.44
2016-08-19T01:58:22.883Z,20.4
2016-08-19T01:59:22.913Z,20.44
2016-08-19T02:00:22.223Z,20.51
2016-08-19T02:01:22.974Z,20.52
2016-08-19T02:02:22.987Z,20.56
2016-08-19T02:03:23.037Z,20.47
2016-08-19T02:04:23.040Z,20.41
2016-08-19T02:05:23.775Z,20.47
2016-08-19T02:06:23.808Z,20.47
2016-08-19T02:07:23.116Z,20.47
2016-08-19T02:08:23.149Z,20.43
2016-08-19T02:09:22.461Z,20.44
2016-08-19T02:10:23.907Z,20.4
2016-08-19T02:11:22.511Z,20.47
2016-08-19T02:12:23.258Z,20.41
2016-08-19T02:13:22.562Z,20.44
2016-08-19T02:14:23.295Z,20.43
2016-08-19T02:15:23.322Z,20.43
2016-08-19T02:16:24.061Z,20.4
2016-08-19T02:17:23.372Z,20.41
2016-08-19T02:18:23.402Z,20.43
2016-08-19T02:19:23.429Z,20.41
2016-08-19T02:20:23.471Z,20.43
2016-08-19T02:21:22.769Z,20.44
2016-08-19T02:22:22.797Z,20.41
2016-08-19T02:23:24.243Z,20.43
2016-08-19T02:24:23.556Z,20.41
2016-08-19T02:25:23.583Z,20.41
2016-08-19T02:26:23.612Z,20.59
2016-08-19T02:27:24.346Z,20.51
2016-08-19T02:28:23.688Z,20.52
2016-08-19T02:29:22.981Z,20.56
2016-08-19T02:30:23.711Z,20.52
2016-08-19T02:31:23.734Z,20.58
2016-08-19T02:32:23.760Z,20.56
2016-08-19T02:33:24.511Z,20.55
2016-08-19T02:34:23.106Z,20.55
2016-08-19T02:35:23.131Z,20.56
2016-08-19T02:36:23.866Z,20.62
2016-08-19T02:37:23.907Z,20.62
2016-08-19T02:38:23.927Z,20.62
2016-08-19T02:39:23.231Z,20.65
2016-08-19T02:40:23.261Z,20.63
2016-08-19T02:41:23.993Z,20.66
2016-08-19T02:42:23.317Z,20.69
2016-08-19T02:43:24.049Z,20.67
2016-08-19T02:44:23.364Z,20.81
2016-08-19T02:45:24.100Z,20.74
2016-08-19T02:46:24.123Z,20.67
2016-08-19T02:47:24.152Z,20.75
2016-08-19T02:48:23.469Z,20.75
2016-08-19T02:49:23.494Z,20.67
2016-08-19T02:50:24.252Z,20.72
2016-08-19T02:51:24.962Z,20.72
2016-08-19T02:52:24.280Z,20.77
2016-08-19T02:53:24.315Z,20.72
2016-08-19T02:54:25.044Z,20.75
2016-08-19T02:55:25.072Z,20.77
2016-08-19T02:56:23.674Z,20.7
2016-08-19T02:57:24.422Z,20.72
2016-08-19T02:58:24.451Z,20.69
2016-08-19T02:59:23.752Z,20.77
2016-08-19T03:00:25.202Z,20.66
2016-08-19T03:01:24.523Z,20.72
2016-08-19T03:02:24.541Z,20.74
2016-08-19T03:03:23.855Z,20.77
2016-08-19T03:04:24.592Z,20.77
2016-08-19T03:05:23.929Z,20.7
2016-08-19T03:06:23.930Z,20.69
2016-08-19T03:07:24.680Z,20.7
2016-08-19T03:08:23.993Z,20.69
2016-08-19T03:09:24.722Z,20.77
2016-08-19T03:10:25.467Z,20.7
2016-08-19T03:11:24.772Z,20.63
2016-08-19T03:12:25.507Z,20.75
2016-08-19T03:13:24.118Z,20.77
2016-08-19T03:14:24.849Z,20.8
2016-08-19T03:15:24.183Z,20.67
2016-08-19T03:16:25.614Z,20.66
2016-08-19T03:17:24.933Z,20.72
2016-08-19T03:18:24.962Z,20.78
2016-08-19T03:19:24.983Z,20.7
2016-08-19T03:20:24.305Z,20.75
2016-08-19T03:21:25.752Z,20.78
2016-08-19T03:22:25.770Z,20.72
2016-08-19T03:23:25.114Z,20.77
2016-08-19T03:24:25.820Z,20.72
2016-08-19T03:25:24.435Z,20.69
2016-08-19T03:26:24.452Z,20.7
2016-08-19T03:27:25.190Z,20.74
2016-08-19T03:28:25.217Z,20.8
2016-08-19T03:29:25.244Z,20.72
2016-08-19T03:30:25.272Z,20.74
2016-08-19T03:31:25.292Z,20.72
2016-08-19T03:32:26.026Z,20.74
2016-08-19T03:33:24.638Z,20.77
2016-08-19T03:34:25.371Z,20.81
2016-08-19T03:35:26.110Z,20.78
2016-08-19T03:36:25.426Z,20.82
2016-08-19T03:37:25.452Z,20.75
2016-08-19T03:38:26.200Z,20.72
2016-08-19T03:39:25.505Z,20.78
2016-08-19T03:40:25.528Z,20.72
2016-08-19T03:41:24.849Z,20.75
2016-08-19T03:42:26.292Z,20.74
2016-08-19T03:43:25.617Z,20.72
2016-08-19T03:44:25.634Z,20.74
2016-08-19T03:45:24.946Z,20.78
2016-08-19T03:46:25.694Z,20.77
2016-08-19T03:47:26.421Z,20.77
2016-08-19T03:48:25.738Z,20.77
2016-08-19T03:49:25.761Z,20.84
2016-08-19T03:50:25.077Z,20.77
2016-08-19T03:51:25.819Z,20.78
2016-08-19T03:52:25.845Z,20.8
2016-08-19T03:53:25.153Z,20.85
2016-08-19T03:54:25.182Z,20.81
2016-08-19T03:55:26.642Z,20.85
2016-08-19T03:56:25.232Z,20.84
2016-08-19T03:57:25.970Z,20.85
2016-08-19T03:58:26.001Z,20.85
2016-08-19T03:59:26.741Z,20.88
2016-08-19T04:00:25.337Z,20.95
2016-08-19T04:01:26.072Z,20.96
2016-08-19T04:02:25.401Z,20.88
2016-08-19T04:03:26.136Z,20.93
2016-08-19T04:04:26.862Z,20.93
2016-08-19T04:05:26.181Z,20.93
2016-08-19T04:06:25.497Z,20.92
2016-08-19T04:07:25.524Z,21.05
2016-08-19T04:08:25.545Z,20.97
2016-08-19T04:09:25.571Z,20.99
2016-08-19T04:10:25.596Z,20.96
2016-08-19T04:11:27.057Z,20.99
2016-08-19T04:12:26.367Z,20.97
2016-08-19T04:13:26.391Z,20.97
2016-08-19T04:14:26.415Z,20.99
2016-08-19T04:15:25.727Z,21.03
2016-08-19T04:16:25.755Z,20.92
2016-08-19T04:17:26.492Z,20.95
2016-08-19T04:18:26.531Z,20.99
2016-08-19T04:19:25.858Z,21
2016-08-19T04:20:25.879Z,20.92
2016-08-19T04:21:25.885Z,20.9
2016-08-19T04:22:26.617Z,21.02
2016-08-19T04:23:26.650Z,20.95
2016-08-19T04:24:27.392Z,20.93
2016-08-19T04:25:25.995Z,20.97
2016-08-19T04:26:27.450Z,20.93
2016-08-19T04:27:27.463Z,21.06
2016-08-19T04:28:26.791Z,21.11
2016-08-19T04:29:26.805Z,21.02
2016-08-19T04:30:27.540Z,21.02
2016-08-19T04:31:26.159Z,21.02
2016-08-19T04:32:26.880Z,20.95
2016-08-19T04:33:27.617Z,20.95
2016-08-19T04:34:26.230Z,20.84
2016-08-19T04:35:26.957Z,20.82
2016-08-19T04:36:27.694Z,20.78
2016-08-19T04:37:27.011Z,20.74
2016-08-19T04:38:26.327Z,20.77
2016-08-19T04:39:27.075Z,20.75
2016-08-19T04:40:27.085Z,20.8
2016-08-19T04:41:27.829Z,20.74
2016-08-19T04:42:26.441Z,20.56
2016-08-19T04:43:27.165Z,20.43
2016-08-19T04:44:27.209Z,20.29
2016-08-19T04:45:26.522Z,20.39
2016-08-19T04:46:27.245Z,20.34
2016-08-19T04:47:27.268Z,20.36
2016-08-19T04:48:27.294Z,20.32
2016-08-19T04:49:27.321Z,20.39
2016-08-19T04:50:26.643Z,20.36
2016-08-19T04:51:27.379Z,20.37
2016-08-19T04:52:28.112Z,20.32
2016-08-19T04:53:26.716Z,20.26
2016-08-19T04:54:28.164Z,20.34
2016-08-19T04:55:27.483Z,20.32
2016-08-19T04:56:27.519Z,20.32
2016-08-19T04:57:28.264Z,20.24
2016-08-19T04:58:26.848Z,20.29
2016-08-19T04:59:27.582Z,20.28
2016-08-19T05:00:26.899Z,20.21
2016-08-19T05:01:27.633Z,20.25
2016-08-19T05:02:28.371Z,20.24
2016-08-19T05:03:27.685Z,20.16
2016-08-19T05:04:27.008Z,20.21
2016-08-19T05:05:28.449Z,20.1
2016-08-19T05:06:27.061Z,20.06
2016-08-19T05:07:27.790Z,20.06
2016-08-19T05:08:27.817Z,20.03
2016-08-19T05:09:28.554Z,20.06
2016-08-19T05:10:28.578Z,20.09
2016-08-19T05:11:28.602Z,20.07
2016-08-19T05:12:27.209Z,20.09
2016-08-19T05:13:27.240Z,20.11
2016-08-19T05:14:27.996Z,19.96
2016-08-19T05:15:28.002Z,19.95
2016-08-19T05:16:27.309Z,19.95
2016-08-19T05:17:27.333Z,19.91
2016-08-19T05:18:27.361Z,19.92
2016-08-19T05:19:27.384Z,19.77
2016-08-19T05:20:28.127Z,19.69
2016-08-19T05:21:27.437Z,19.66
2016-08-19T05:22:28.171Z,19.64
2016-08-19T05:23:28.197Z,19.66
2016-08-19T05:24:28.224Z,19.66
2016-08-19T05:25:28.253Z,19.55
2016-08-19T05:26:28.985Z,19.51
2016-08-19T05:27:28.290Z,19.44
2016-08-19T05:28:29.035Z,19.51
2016-08-19T05:29:29.069Z,19.48
2016-08-19T05:30:29.085Z,19.49
2016-08-19T05:31:28.399Z,19.55
2016-08-19T05:32:29.138Z,19.51
2016-08-19T05:33:28.449Z,19.56
2016-08-19T05:34:27.763Z,19.47
2016-08-19T05:35:27.790Z,19.47
2016-08-19T05:36:28.523Z,19.54
2016-08-19T05:37:28.577Z,19.55
2016-08-19T05:38:28.584Z,19.51
2016-08-19T05:39:28.600Z,19.51
2016-08-19T05:40:27.918Z,19.56
2016-08-19T05:41:28.651Z,19.62
2016-08-19T05:42:29.389Z,19.56
2016-08-19T05:43:28.702Z,19.58
2016-08-19T05:44:28.018Z,19.64
2016-08-19T05:45:29.562Z,19.7
2016-08-19T05:46:28.802Z,19.67
2016-08-19T05:47:28.111Z,19.67
2016-08-19T05:48:28.829Z,19.66
2016-08-19T05:49:28.142Z,19.71
2016-08-19T05:50:28.172Z,19.71
2016-08-19T05:51:28.196Z,19.73
2016-08-19T05:52:28.935Z,19.7
2016-08-19T05:53:28.955Z,19.76
2016-08-19T05:54:28.978Z,19.81
2016-08-19T05:55:28.316Z,19.79
2016-08-19T05:56:28.327Z,19.76
2016-08-19T05:57:29.770Z,19.82
2016-08-19T05:58:29.086Z,19.76
2016-08-19T05:59:28.396Z,19.81
2016-08-19T06:00:28.428Z,19.76
2016-08-19T06:01:29.156Z,19.82
2016-08-19T06:02:29.182Z,19.77
2016-08-19T06:03:28.500Z,19.79
2016-08-19T06:04:29.231Z,19.79
2016-08-19T06:05:29.258Z,19.81
2016-08-19T06:06:29.990Z,19.81
2016-08-19T06:07:29.307Z,19.74
2016-08-19T06:08:29.333Z,19.77
2016-08-19T06:09:28.648Z,19.81
2016-08-19T06:10:28.672Z,19.79
2016-08-19T06:11:28.700Z,19.77
2016-08-19T06:12:28.723Z,19.77
2016-08-19T06:13:30.169Z,19.73
2016-08-19T06:14:28.775Z,19.79
2016-08-19T06:15:30.230Z,19.79
2016-08-19T06:16:29.539Z,19.79
2016-08-19T06:17:28.861Z,19.79
2016-08-19T06:18:28.914Z,19.71
2016-08-19T06:19:30.343Z,19.76
2016-08-19T06:20:29.633Z,19.79
2016-08-19T06:21:30.374Z,19.77
2016-08-19T06:22:28.977Z,19.89
2016-08-19T06:23:29.716Z,19.88
2016-08-19T06:24:29.029Z,19.84
2016-08-19T06:25:30.497Z,19.88
2016-08-19T06:26:30.498Z,19.88
2016-08-19T06:27:30.535Z,19.89
2016-08-19T06:28:29.853Z,19.88
2016-08-19T06:29:29.863Z,19.79
2016-08-19T06:30:29.177Z,19.77
2016-08-19T06:31:29.915Z,19.76
2016-08-19T06:32:29.230Z,19.73
2016-08-19T06:33:29.965Z,19.79
2016-08-19T06:34:29.302Z,19.73
2016-08-19T06:35:30.028Z,19.74
2016-08-19T06:36:30.040Z,19.77
2016-08-19T06:37:30.067Z,19.73
2016-08-19T06:38:30.094Z,19.73
2016-08-19T06:39:29.407Z,19.77
2016-08-19T06:40:30.144Z,19.63
2016-08-19T06:41:30.182Z,19.7
2016-08-19T06:42:29.492Z,19.67
2016-08-19T06:43:29.529Z,19.66
2016-08-19T06:44:30.244Z,19.56
2016-08-19T06:45:30.264Z,19.59
2016-08-19T06:46:29.585Z,19.59
2016-08-19T06:47:31.029Z,19.58
2016-08-19T06:48:30.356Z,19.58
2016-08-19T06:49:30.384Z,19.58
2016-08-19T06:50:29.692Z,19.56
2016-08-19T06:51:30.420Z,19.58
2016-08-19T06:52:30.445Z,19.55
2016-08-19T06:53:31.179Z,19.64
2016-08-19T06:54:30.495Z,19.69
2016-08-19T06:55:30.519Z,19.73
2016-08-19T06:56:29.837Z,19.66
2016-08-19T06:57:30.600Z,19.74
2016-08-19T06:58:30.610Z,19.69
2016-08-19T06:59:31.330Z,19.76
2016-08-19T07:00:29.937Z,19.71
2016-08-19T07:01:30.672Z,19.69
2016-08-19T07:02:31.422Z,19.7
2016-08-19T07:03:31.432Z,19.64
2016-08-19T07:04:30.743Z,19.66
2016-08-19T07:05:31.481Z,19.69
2016-08-19T07:06:30.797Z,19.74
2016-08-19T07:07:30.119Z,19.76
2016-08-19T07:08:31.557Z,19.76
2016-08-19T07:09:30.162Z,19.74
2016-08-19T07:10:30.898Z,19.88
2016-08-19T07:11:31.641Z,19.84
2016-08-19T07:12:30.236Z,19.86
2016-08-19T07:13:30.976Z,19.85
2016-08-19T07:14:30.998Z,19.86
2016-08-19T07:15:30.314Z,19.86
2016-08-19T07:16:30.339Z,19.71
2016-08-19T07:17:30.363Z,19.86
2016-08-19T07:18:31.096Z,19.85
2016-08-19T07:19:30.429Z,19.91
2016-08-19T07:20:30.444Z,19.91
2016-08-19T07:21:31.194Z,19.92
2016-08-19T07:22:30.509Z,19.94
2016-08-19T07:23:31.942Z,19.86
2016-08-19T07:24:30.537Z,19.91
2016-08-19T07:25:30.567Z,19.94
2016-08-19T07:26:31.302Z,19.88
2016-08-19T07:27:31.325Z,19.92
2016-08-19T07:28:32.176Z,19.92
2016-08-19T07:29:32.089Z,19.86
2016-08-19T07:30:31.417Z,19.92
2016-08-19T07:31:31.429Z,19.95
2016-08-19T07:32:32.164Z,19.99
2016-08-19T07:33:32.191Z,20.06
2016-08-19T07:34:30.796Z,20.06
2016-08-19T07:35:32.241Z,20.02
2016-08-19T07:36:31.556Z,20.1
2016-08-19T07:37:32.289Z,20.07
2016-08-19T07:38:31.606Z,20.04
2016-08-19T07:39:31.640Z,20.1
2016-08-19T07:40:32.370Z,20.07
2016-08-19T07:41:30.972Z,20.22
2016-08-19T07:42:32.419Z,20.25
2016-08-19T07:43:31.741Z,20.19
2016-08-19T07:44:32.468Z,20.24
2016-08-19T07:45:31.072Z,20.22
2016-08-19T07:46:31.810Z,20.25
2016-08-19T07:47:31.832Z,20.24
2016-08-19T07:48:31.150Z,20.22
2016-08-19T07:49:32.596Z,20.25
2016-08-19T07:50:31.910Z,20.25
2016-08-19T07:51:31.935Z,20.31
2016-08-19T07:52:31.965Z,20.34
2016-08-19T07:53:32.695Z,20.29
2016-08-19T07:54:32.013Z,20.32
2016-08-19T07:55:32.036Z,20.36
2016-08-19T07:56:32.062Z,20.36
2016-08-19T07:57:32.817Z,20.37
2016-08-19T07:58:32.120Z,20.41
2016-08-19T07:59:32.146Z,20.44
2016-08-19T08:00:31.467Z,20.47
2016-08-19T08:01:32.908Z,20.47
2016-08-19T08:02:31.509Z,20.47
2016-08-19T08:03:32.963Z,20.63
2016-08-19T08:04:32.266Z,20.58
2016-08-19T08:05:31.584Z,20.65
2016-08-19T08:06:32.318Z,20.66
2016-08-19T08:07:32.348Z,20.67
2016-08-19T08:08:32.398Z,20.69
2016-08-19T08:09:31.689Z,20.7
2016-08-19T08:10:31.719Z,20.67
2016-08-19T08:11:31.737Z,20.63
2016-08-19T08:12:32.471Z,20.66
2016-08-19T08:13:31.791Z,20.7
2016-08-19T08:14:31.813Z,20.6
2016-08-19T08:15:33.266Z,20.74
2016-08-19T08:16:32.586Z,20.7
2016-08-19T08:17:33.311Z,20.78
2016-08-19T08:18:33.353Z,20.75
2016-08-19T08:19:31.942Z,20.7
2016-08-19T08:20:32.679Z,20.81
2016-08-19T08:21:32.703Z,20.8
2016-08-19T08:22:32.733Z,20.8
2016-08-19T08:23:33.465Z,20.87
2016-08-19T08:24:32.783Z,20.87
2016-08-19T08:25:33.519Z,20.82
2016-08-19T08:26:32.832Z,20.93
2016-08-19T08:27:32.858Z,20.96
2016-08-19T08:28:32.176Z,20.93
2016-08-19T08:29:32.206Z,20.92
2016-08-19T08:30:33.657Z,20.99
2016-08-19T08:31:32.970Z,20.96
2016-08-19T08:32:32.993Z,20.95
2016-08-19T08:33:33.726Z,20.93
2016-08-19T08:34:33.756Z,20.95
2016-08-19T08:35:33.071Z,21
2016-08-19T08:36:32.384Z,20.96
2016-08-19T08:37:33.119Z,21.02
2016-08-19T08:38:33.874Z,20.97
2016-08-19T08:39:32.463Z,21.05
2016-08-19T08:40:32.488Z,21.03
2016-08-19T08:41:33.221Z,21.02
2016-08-19T08:42:33.250Z,21.06
2016-08-19T08:43:32.562Z,21.05
2016-08-19T08:44:33.303Z,21.11
2016-08-19T08:45:33.349Z,21.12
2016-08-19T08:46:33.352Z,21.18
2016-08-19T08:47:34.096Z,21.24
2016-08-19T08:48:33.404Z,21.29
2016-08-19T08:49:32.726Z,21.29
2016-08-19T08:50:32.749Z,21.27
2016-08-19T08:51:34.212Z,21.25
2016-08-19T08:52:33.509Z,21.27
2016-08-19T08:53:34.272Z,21.4
2016-08-19T08:54:32.851Z,21.32
2016-08-19T08:55:33.606Z,21.32
2016-08-19T08:56:32.916Z,21.37
2016-08-19T08:57:32.930Z,21.32
2016-08-19T08:58:33.667Z,21.33
2016-08-19T08:59:33.700Z,21.36
2016-08-19T09:00:33.726Z,21.42
2016-08-19T09:01:33.041Z,21.51
2016-08-19T09:02:33.065Z,21.54
2016-08-19T09:03:33.822Z,21.55
2016-08-19T09:04:34.547Z,21.64
2016-08-19T09:05:33.141Z,21.69
2016-08-19T09:06:33.168Z,21.79
2016-08-19T09:07:34.622Z,21.72
2016-08-19T09:08:33.934Z,21.83
2016-08-19T09:09:33.954Z,21.93
2016-08-19T09:10:34.699Z,22
2016-08-19T09:11:34.004Z,22.02
2016-08-19T09:12:34.048Z,22.07
2016-08-19T09:13:34.069Z,22.14
2016-08-19T09:14:34.086Z,22.13
2016-08-19T09:15:34.115Z,22.1
2016-08-19T09:16:34.853Z,22.04
2016-08-19T09:17:34.167Z,22.08
2016-08-19T09:18:33.489Z,22.1
2016-08-19T09:19:34.217Z,22.15
2016-08-19T09:20:34.959Z,22.13
2016-08-19T09:21:34.282Z,22.11
2016-08-19T09:22:33.591Z,22.07
2016-08-19T09:23:33.619Z,22.25
2016-08-19T09:24:35.064Z,22.17
2016-08-19T09:25:35.110Z,22.17
2016-08-19T09:26:34.406Z,22.28
2016-08-19T09:27:34.434Z,22.26
2016-08-19T09:28:35.171Z,22.35
2016-08-19T09:29:33.779Z,22.29
2016-08-19T09:30:33.806Z,22.26
2016-08-19T09:31:35.252Z,22.29
2016-08-19T09:32:33.863Z,22.28
2016-08-19T09:33:33.889Z,22.28
2016-08-19T09:34:35.343Z,22.32
2016-08-19T09:35:35.360Z,22.33
2016-08-19T09:36:34.673Z,22.26
2016-08-19T09:37:35.414Z,22.15
2016-08-19T09:38:34.731Z,22.28
2016-08-19T09:39:34.048Z,22.2
2016-08-19T09:40:34.074Z,22.3
2016-08-19T09:41:34.099Z,22.32
2016-08-19T09:42:34.124Z,22.32
2016-08-19T09:43:34.864Z,22.29
2016-08-19T09:44:34.923Z,22.23
2016-08-19T09:45:34.213Z,22.26
2016-08-19T09:46:34.944Z,22.3
2016-08-19T09:47:34.974Z,22.25
2016-08-19T09:48:34.291Z,22.3
2016-08-19T09:49:35.039Z,22.35
2016-08-19T09:50:34.347Z,22.36
2016-08-19T09:51:35.079Z,22.33
2016-08-19T09:52:35.126Z,22.39
2016-08-19T09:53:35.134Z,22.43
2016-08-19T09:54:35.166Z,22.47
2016-08-19T09:55:35.189Z,22.45
2016-08-19T09:56:35.217Z,22.47
2016-08-19T09:57:34.533Z,22.53
2016-08-19T09:58:35.984Z,22.59
2016-08-19T09:59:34.588Z,22.69
2016-08-19T10:00:35.341Z,22.7
2016-08-19T10:01:36.058Z,22.76
2016-08-19T10:02:36.088Z,22.76
2016-08-19T10:03:34.694Z,22.81
2016-08-19T10:04:36.143Z,22.8
2016-08-19T10:05:35.460Z,22.78
2016-08-19T10:06:35.486Z,22.81
2016-08-19T10:07:36.221Z,22.8
2016-08-19T10:08:34.849Z,22.83
2016-08-19T10:09:35.584Z,22.83
2016-08-19T10:10:36.309Z,22.93
2016-08-19T10:11:35.620Z,23.02
2016-08-19T10:12:36.361Z,22.94
2016-08-19T10:13:35.677Z,22.99
2016-08-19T10:14:36.418Z,23.03
2016-08-19T10:15:35.732Z,23.03
2016-08-19T10:16:36.470Z,23
2016-08-19T10:17:35.800Z,23.05
2016-08-19T10:18:35.102Z,23.06
2016-08-19T10:19:35.840Z,23.08
2016-08-19T10:20:35.869Z,23.08
2016-08-19T10:21:36.628Z,23.09
2016-08-19T10:22:35.214Z,23.12
2016-08-19T10:23:35.239Z,23.21
2016-08-19T10:24:35.281Z,23.2
2016-08-19T10:25:36.009Z,23.27
2016-08-19T10:26:36.033Z,23.32
2016-08-19T10:27:36.067Z,23.23
2016-08-19T10:28:36.798Z,23.32
2016-08-19T10:29:35.413Z,23.32
2016-08-19T10:30:36.142Z,23.32
2016-08-19T10:31:35.459Z,23.32
2016-08-19T10:32:36.200Z,23.32
2016-08-19T10:33:36.937Z,23.48
2016-08-19T10:34:35.541Z,23.43
2016-08-19T10:35:36.990Z,23.56
2016-08-19T10:36:35.598Z,23.63
2016-08-19T10:37:36.338Z,23.69
2016-08-19T10:38:35.650Z,23.77
2016-08-19T10:39:36.394Z,23.92
2016-08-19T10:40:37.134Z,23.88
2016-08-19T10:41:36.442Z,23.96
2016-08-19T10:42:37.194Z,23.99
2016-08-19T10:43:35.808Z,24.05
2016-08-19T10:44:36.529Z,24.18
2016-08-19T10:45:36.574Z,24.18
2016-08-19T10:46:36.585Z,24.26
2016-08-19T10:47:36.639Z,24.35
2016-08-19T10:48:36.643Z,24.35
2016-08-19T10:49:36.671Z,24.36
2016-08-19T10:50:36.701Z,24.48
2016-08-19T10:51:36.020Z,24.5
2016-08-19T10:52:36.756Z,24.54
2016-08-19T10:53:36.784Z,24.65
2016-08-19T10:54:36.109Z,24.8
2016-08-19T10:55:36.860Z,24.84
2016-08-19T10:56:36.872Z,24.86
2016-08-19T10:57:36.201Z,24.93
2016-08-19T10:58:36.928Z,24.81
2016-08-19T10:59:36.960Z,24.89
2016-08-19T11:00:36.987Z,24.88
2016-08-19T11:01:37.736Z,24.89
2016-08-19T11:02:37.064Z,24.96
2016-08-19T11:03:37.784Z,24.99
2016-08-19T11:04:36.391Z,25.06
2016-08-19T11:05:37.834Z,25.04
2016-08-19T11:06:36.468Z,25.07
2016-08-19T11:07:37.896Z,25.11
2016-08-19T11:08:37.211Z,25.13
2016-08-19T11:09:36.532Z,25.07
2016-08-19T11:10:37.281Z,25.18
2016-08-19T11:11:36.592Z,25.17
2016-08-19T11:12:37.334Z,25.28
2016-08-19T11:13:36.647Z,25.4
2016-08-19T11:14:37.388Z,25.41
2016-08-19T11:15:37.415Z,25.5
2016-08-19T11:16:36.735Z,25.54
2016-08-19T11:17:37.479Z,25.63
2016-08-19T11:18:38.218Z,25.69
2016-08-19T11:19:38.242Z,25.72
2016-08-19T11:20:37.599Z,25.72
2016-08-19T11:21:37.604Z,25.85
2016-08-19T11:22:36.916Z,25.88
2016-08-19T11:23:37.650Z,25.93
2016-08-19T11:24:36.972Z,25.99
2016-08-19T11:25:36.997Z,25.99
2016-08-19T11:26:37.026Z,26.03
2016-08-19T11:27:37.764Z,26.05
2016-08-19T11:28:37.817Z,26.1
2016-08-19T11:29:37.824Z,26.06
2016-08-19T11:30:37.851Z,26.18
2016-08-19T11:31:37.881Z,26.22
2016-08-19T11:32:37.909Z,26.31
2016-08-19T11:33:37.232Z,26.25
2016-08-19T11:34:38.685Z,26.34
2016-08-19T11:35:37.289Z,26.26
2016-08-19T11:36:38.032Z,26.4
2016-08-19T11:37:37.353Z,26.45
2016-08-19T11:38:38.087Z,26.38
2016-08-19T11:39:38.831Z,26.47
2016-08-19T11:40:38.855Z,26.48
2016-08-19T11:41:37.470Z,26.58
2016-08-19T11:42:37.494Z,26.59
2016-08-19T11:43:37.527Z,26.56
2016-08-19T11:44:38.278Z,26.6
2016-08-19T11:45:38.311Z,26.53
2016-08-19T11:46:38.330Z,26.62
2016-08-19T11:47:37.644Z,26.59
2016-08-19T11:48:38.382Z,26.56
2016-08-19T11:49:37.707Z,26.52
2016-08-19T11:50:38.445Z,26.6
2016-08-19T11:51:38.474Z,26.53
2016-08-19T11:52:38.525Z,26.65
2016-08-19T11:53:38.532Z,26.65
2016-08-19T11:54:37.854Z,26.68
2016-08-19T11:55:38.593Z,26.59
2016-08-19T11:56:39.341Z,26.58
2016-08-19T11:57:38.655Z,26.73
2016-08-19T11:58:38.682Z,26.75
2016-08-19T11:59:38.734Z,26.88
2016-08-19T12:00:38.037Z,26.83
2016-08-19T12:01:38.063Z,26.89
2016-08-19T12:02:39.511Z,26.89
2016-08-19T12:03:39.543Z,27
2016-08-19T12:04:38.155Z,27.03
2016-08-19T12:05:38.893Z,27.05
2016-08-19T12:06:38.924Z,27.1
2016-08-19T12:07:39.662Z,27.05
2016-08-19T12:08:38.269Z,27.08
2016-08-19T12:09:39.015Z,27.03
2016-08-19T12:10:39.046Z,27.03
2016-08-19T12:11:39.787Z,27.02
2016-08-19T12:12:39.816Z,27.07
2016-08-19T12:13:39.142Z,27.11
2016-08-19T12:14:38.459Z,27.14
2016-08-19T12:15:38.489Z,27.18
2016-08-19T12:16:39.226Z,27.29
2016-08-19T12:17:39.268Z,27.33
2016-08-19T12:18:39.997Z,27.26
2016-08-19T12:19:38.605Z,27.35
2016-08-19T12:20:39.351Z,27.22
2016-08-19T12:21:39.377Z,27.33
2016-08-19T12:22:39.405Z,27.32
2016-08-19T12:23:39.438Z,27.32
2016-08-19T12:24:38.757Z,27.37
2016-08-19T12:25:39.639Z,27.26
2016-08-19T12:26:39.528Z,27.29
2016-08-19T12:27:38.848Z,27.29
2016-08-19T12:28:39.589Z,27.27
2016-08-19T12:29:39.622Z,27.27
2016-08-19T12:30:38.940Z,27.26
2016-08-19T12:31:39.677Z,27.27
2016-08-19T12:32:39.709Z,27.25
2016-08-19T12:33:40.477Z,27.35
2016-08-19T12:34:39.058Z,27.36
2016-08-19T12:35:39.799Z,27.44
2016-08-19T12:36:39.836Z,27.36
2016-08-19T12:37:40.574Z,27.44
2016-08-19T12:38:39.181Z,27.54
2016-08-19T12:39:39.921Z,27.47
2016-08-19T12:40:39.951Z,27.52
2016-08-19T12:41:39.276Z,27.58
2016-08-19T12:42:40.017Z,27.58
2016-08-19T12:43:40.109Z,27.55
2016-08-19T12:44:40.088Z,27.7
2016-08-19T12:45:40.137Z,27.67
2016-08-19T12:46:40.157Z,27.7
2016-08-19T12:47:39.462Z,27.75
2016-08-19T12:48:40.199Z,27.78
2016-08-19T12:49:40.938Z,27.85
2016-08-19T12:50:40.287Z,27.87
2016-08-19T12:51:41.009Z,27.82
2016-08-19T12:52:40.320Z,27.87
2016-08-19T12:53:40.353Z,27.96
2016-08-19T12:54:40.380Z,28.02
2016-08-19T12:55:39.701Z,28.02